createdAt,value
2022-10-28T00:01:07.427Z,17.80
2022-10-28T00:03:38.252Z,18.46
2022-10-28T00:06:10.531Z,18.09
2022-10-28T00:08:37.192Z,18.00
2022-10-28T00:11:15.396Z,18.02
2022-10-28T00:13:42.970Z,17.87
2022-10-28T00:16:12.240Z,17.91
2022-10-28T00:18:39.288Z,17.87
2022-10-28T00:21:12.612Z,17.77
2022-10-28T00:23:39.574Z,18.37
2022-10-28T00:26:17.850Z,18.09
2022-10-28T00:28:50.348Z,17.98
2022-10-28T00:31:19.781Z,17.92
2022-10-28T00:33:46.966Z,17.95
2022-10-28T00:36:27.326Z,17.93
2022-10-28T00:38:55.031Z,17.79
2022-10-28T00:41:36.836Z,17.78
2022-10-28T00:44:37.833Z,17.61
2022-10-28T00:47:05.734Z,17.50
2022-10-28T00:49:34.635Z,17.40
2022-10-28T00:52:06.060Z,17.35
2022-10-28T00:54:33.566Z,17.61
2022-10-28T00:57:02.983Z,17.64
2022-10-28T00:59:34.249Z,17.45
2022-10-28T01:02:01.332Z,17.86
2022-10-28T01:04:28.048Z,17.87
2022-10-28T01:06:56.599Z,17.78
2022-10-28T01:09:23.008Z,17.93
2022-10-28T01:12:08.077Z,17.74
2022-10-28T01:14:44.181Z,17.56
2022-10-28T01:17:38.555Z,17.65
2022-10-28T01:20:23.709Z,17.45
2022-10-28T01:23:01.155Z,17.40
2022-10-28T01:26:00.051Z,17.35
2022-10-28T01:28:45.671Z,17.20
2022-10-28T01:31:19.710Z,17.12
2022-10-28T01:33:57.917Z,17.03
2022-10-28T01:36:36.960Z,17.02
2022-10-28T01:39:22.226Z,16.99
2022-10-28T01:41:57.858Z,16.86
2022-10-28T01:44:30.607Z,16.92
2022-10-28T01:47:04.404Z,16.78
2022-10-28T01:49:41.686Z,16.68
2022-10-28T01:52:12.844Z,16.69
2022-10-28T01:54:42.832Z,16.66
2022-10-28T01:57:12.333Z,16.63
2022-10-28T01:59:41.121Z,16.54
2022-10-28T02:02:07.564Z,16.42
2022-10-28T02:04:33.974Z,16.49
2022-10-28T02:07:00.962Z,16.43
2022-10-28T02:09:47.361Z,17.41
2022-10-28T02:12:19.869Z,17.40
2022-10-28T02:14:55.642Z,17.29
2022-10-28T02:18:00.001Z,17.20
2022-10-28T02:20:40.182Z,17.18
2022-10-28T02:23:15.403Z,17.12
2022-10-28T02:25:49.800Z,17.06
2022-10-28T02:28:22.032Z,17.12
2022-10-28T02:30:55.598Z,17.23
2022-10-28T02:33:26.951Z,17.19
2022-10-28T02:35:59.121Z,17.30
2022-10-28T02:38:32.285Z,17.27
2022-10-28T02:41:03.624Z,17.22
2022-10-28T02:43:33.608Z,17.20
2022-10-28T02:46:03.297Z,17.14
2022-10-28T02:48:49.415Z,17.07
2022-10-28T02:51:21.605Z,17.06
2022-10-28T02:54:09.232Z,17.01
2022-10-28T02:56:42.891Z,16.99
2022-10-28T02:59:13.098Z,16.96
2022-10-28T03:01:40.156Z,16.98
2022-10-28T03:04:06.867Z,16.92
2022-10-28T03:06:33.236Z,16.97
2022-10-28T03:08:59.898Z,16.82
2022-10-28T03:11:26.223Z,16.75
2022-10-28T03:13:52.564Z,16.60
2022-10-28T03:16:19.219Z,16.59
2022-10-28T03:18:45.759Z,16.61
2022-10-28T03:21:12.083Z,16.60
2022-10-28T03:23:38.465Z,16.54
2022-10-28T03:26:04.879Z,16.54
2022-10-28T03:28:31.201Z,16.51
2022-10-28T03:30:57.601Z,16.47
2022-10-28T03:33:23.920Z,16.48
2022-10-28T03:35:50.232Z,16.49
2022-10-28T03:38:16.648Z,16.44
2022-10-28T03:40:42.974Z,16.60
2022-10-28T03:43:09.282Z,16.65
2022-10-28T03:45:35.655Z,16.69
2022-10-28T03:48:02.014Z,16.72
2022-10-28T03:50:28.958Z,16.68
2022-10-28T03:52:55.421Z,16.69
2022-10-28T03:55:21.748Z,16.65
2022-10-28T03:57:48.181Z,16.64
2022-10-28T04:00:15.327Z,16.77
2022-10-28T04:02:41.636Z,16.73
2022-10-28T04:05:09.087Z,16.73
2022-10-28T04:07:35.573Z,16.66
2022-10-28T04:10:01.966Z,16.69
2022-10-28T04:12:28.366Z,16.68
2022-10-28T04:14:54.673Z,16.66
2022-10-28T04:17:21.361Z,16.68
2022-10-28T04:19:47.742Z,16.65
2022-10-28T04:22:14.304Z,16.65
2022-10-28T04:24:40.663Z,16.74
2022-10-28T04:27:06.967Z,16.84
2022-10-28T04:29:33.445Z,16.87
2022-10-28T04:32:00.020Z,16.78
2022-10-28T04:34:26.598Z,16.78
2022-10-28T04:36:52.924Z,16.81
2022-10-28T04:39:19.644Z,16.85
2022-10-28T04:41:46.395Z,16.91
2022-10-28T04:44:13.075Z,16.89
2022-10-28T04:46:39.479Z,16.90
2022-10-28T04:49:05.938Z,17.05
2022-10-28T04:51:32.375Z,16.97
2022-10-28T04:53:58.954Z,16.96
2022-10-28T04:56:25.304Z,16.93
2022-10-28T04:58:51.839Z,16.92
2022-10-28T05:01:18.262Z,16.99
2022-10-28T05:03:44.702Z,16.95
2022-10-28T05:06:11.133Z,17.13
2022-10-28T05:08:37.486Z,17.01
2022-10-28T05:11:04.352Z,16.97
2022-10-28T05:13:30.737Z,17.03
2022-10-28T05:15:57.160Z,17.44
2022-10-28T05:18:23.522Z,17.34
2022-10-28T05:20:50.101Z,17.45
2022-10-28T05:23:16.580Z,17.52
2022-10-28T05:25:42.937Z,17.63
2022-10-28T05:28:09.311Z,17.59
2022-10-28T05:30:35.824Z,17.49
2022-10-28T05:33:02.618Z,17.48
2022-10-28T05:35:30.306Z,17.44
2022-10-28T05:37:57.576Z,17.40
2022-10-28T05:40:24.245Z,17.35
2022-10-28T05:42:50.822Z,17.39
2022-10-28T05:45:17.661Z,17.24
2022-10-28T05:47:48.710Z,17.24
2022-10-28T05:50:18.178Z,17.20
2022-10-28T05:52:54.109Z,17.26
2022-10-28T05:55:22.206Z,17.30
2022-10-28T05:57:50.092Z,17.33
2022-10-28T06:00:19.098Z,17.24
2022-10-28T06:02:45.968Z,17.42
2022-10-28T06:05:12.937Z,17.42
2022-10-28T06:07:41.062Z,17.40
2022-10-28T06:10:09.209Z,17.34
2022-10-28T06:15:06.732Z,17.25
2022-10-28T06:17:33.273Z,17.29
2022-10-28T06:19:59.759Z,17.32
2022-10-28T06:22:26.422Z,17.20
2022-10-28T06:24:52.874Z,17.08
2022-10-28T06:27:19.361Z,17.08
2022-10-28T06:29:45.735Z,17.10
2022-10-28T06:32:12.351Z,17.16
2022-10-28T06:34:38.755Z,17.20
2022-10-28T06:37:05.364Z,17.18
2022-10-28T06:39:32.024Z,17.18
2022-10-28T06:41:58.533Z,17.17
2022-10-28T06:44:24.969Z,17.20
2022-10-28T06:46:52.891Z,17.44
2022-10-28T06:49:19.429Z,17.66
2022-10-28T06:51:45.862Z,18.23
2022-10-28T06:54:12.214Z,18.06
2022-10-28T06:56:38.743Z,18.13
2022-10-28T06:59:05.109Z,18.27
2022-10-28T07:01:31.601Z,18.58
2022-10-28T07:03:58.105Z,18.48
2022-10-28T07:06:24.602Z,18.58
2022-10-28T07:08:51.569Z,18.55
2022-10-28T07:11:18.135Z,18.46
2022-10-28T07:13:46.656Z,18.46
2022-10-28T07:16:15.322Z,18.41
2022-10-28T07:18:41.736Z,18.30
2022-10-28T07:21:08.184Z,18.27
2022-10-28T07:23:34.714Z,18.12
2022-10-28T07:26:01.361Z,18.09
2022-10-28T07:28:28.251Z,18.10
2022-10-28T07:30:54.780Z,18.00
2022-10-28T07:33:21.211Z,17.96
2022-10-28T07:35:47.600Z,17.87
2022-10-28T07:38:14.456Z,17.78
2022-10-28T07:40:40.922Z,17.72
2022-10-28T07:43:07.299Z,17.69
2022-10-28T07:45:34.894Z,17.64
2022-10-28T07:48:01.854Z,17.66
2022-10-28T07:50:28.304Z,17.86
2022-10-28T07:52:55.307Z,17.77
2022-10-28T07:55:21.879Z,17.74
2022-10-28T07:57:48.758Z,17.82
2022-10-28T08:00:15.620Z,17.91
2022-10-28T08:02:42.165Z,18.28
2022-10-28T08:05:08.824Z,18.44
2022-10-28T08:07:38.448Z,18.76
2022-10-28T08:10:06.590Z,18.70
2022-10-28T08:12:33.079Z,18.65
2022-10-28T08:14:59.498Z,19.07
2022-10-28T08:17:25.840Z,19.16
2022-10-28T08:19:52.209Z,19.29
2022-10-28T08:22:20.724Z,19.29
2022-10-28T08:24:47.074Z,19.34
2022-10-28T08:27:13.632Z,19.48
2022-10-28T08:29:40.002Z,19.52
2022-10-28T08:32:09.511Z,20.62
2022-10-28T08:34:39.262Z,20.70
2022-10-28T08:37:08.932Z,21.13
2022-10-28T08:39:35.334Z,21.68
2022-10-28T08:42:13.827Z,21.69
2022-10-28T08:44:53.485Z,21.05
2022-10-28T08:47:47.653Z,21.22
2022-10-28T08:50:16.487Z,21.12
2022-10-28T08:52:58.920Z,21.14
2022-10-28T08:55:38.620Z,21.06
2022-10-28T08:58:11.595Z,21.25
2022-10-28T09:00:40.077Z,21.74
2022-10-28T09:03:12.441Z,21.80
2022-10-28T09:05:41.279Z,21.59
2022-10-28T09:08:19.227Z,21.86
2022-10-28T09:10:54.486Z,22.26
2022-10-28T09:13:45.969Z,22.03
2022-10-28T09:16:25.153Z,22.31
2022-10-28T09:18:56.809Z,22.22
2022-10-28T09:21:37.667Z,22.11
2022-10-28T09:24:15.804Z,21.65
2022-10-28T09:26:57.422Z,21.89
2022-10-28T09:29:45.592Z,21.72
2022-10-28T09:32:33.767Z,21.80
2022-10-28T09:35:06.491Z,21.94
2022-10-28T09:37:38.195Z,21.72
2022-10-28T09:40:15.558Z,22.05
2022-10-28T09:42:52.716Z,22.01
2022-10-28T09:45:26.542Z,21.87
2022-10-28T09:48:01.488Z,22.17
2022-10-28T09:50:31.862Z,21.80
2022-10-28T09:53:23.034Z,21.95
2022-10-28T09:55:51.143Z,22.08
2022-10-28T09:58:18.791Z,21.71
2022-10-28T10:00:45.405Z,21.67
2022-10-28T10:03:11.863Z,21.89
2022-10-28T10:05:42.357Z,21.92
2022-10-28T10:08:14.374Z,21.95
2022-10-28T10:10:59.240Z,22.29
2022-10-28T10:13:29.563Z,22.27
2022-10-28T10:16:00.803Z,22.24
2022-10-28T10:18:31.009Z,22.14
2022-10-28T10:20:58.018Z,22.19
2022-10-28T10:23:33.257Z,22.19
2022-10-28T10:26:09.489Z,22.46
2022-10-28T10:28:43.338Z,22.35
2022-10-28T10:31:20.532Z,22.44
2022-10-28T10:33:50.448Z,22.89
2022-10-28T10:36:18.911Z,22.99
2022-10-28T10:38:53.570Z,23.05
2022-10-28T10:41:42.745Z,23.29
2022-10-28T10:44:21.546Z,24.23
2022-10-28T10:47:04.937Z,23.77
2022-10-28T10:49:34.674Z,23.95
2022-10-28T10:52:17.708Z,23.81
2022-10-28T10:54:58.761Z,24.01
2022-10-28T10:57:26.021Z,23.85
2022-10-28T10:59:54.370Z,24.10
2022-10-28T11:02:26.407Z,23.82
2022-10-28T11:04:57.414Z,24.12
2022-10-28T11:07:24.394Z,24.08
2022-10-28T11:09:51.620Z,24.41
2022-10-28T11:12:30.145Z,24.22
2022-10-28T11:14:59.088Z,23.90
2022-10-28T11:17:28.744Z,24.08
2022-10-28T11:19:58.457Z,23.80
2022-10-28T11:22:53.753Z,23.78
2022-10-28T11:25:43.442Z,23.93
2022-10-28T11:28:25.058Z,23.66
2022-10-28T11:31:03.371Z,23.51
2022-10-28T11:33:33.262Z,23.41
2022-10-28T11:36:07.148Z,23.48
2022-10-28T11:38:45.857Z,23.47
2022-10-28T11:41:21.303Z,23.63
2022-10-28T11:43:57.559Z,23.47
2022-10-28T11:47:00.924Z,23.45
2022-10-28T11:49:33.207Z,23.42
2022-10-28T11:52:22.819Z,23.46
2022-10-28T11:55:21.108Z,23.73
2022-10-28T11:58:10.371Z,23.87
2022-10-28T12:00:55.613Z,23.72
2022-10-28T12:03:41.077Z,23.76
2022-10-28T12:06:11.230Z,23.71
2022-10-28T12:08:45.272Z,24.07
2022-10-28T12:11:16.733Z,24.10
2022-10-28T12:13:45.997Z,24.16
2022-10-28T12:16:30.886Z,24.70
2022-10-28T12:19:03.688Z,24.29
2022-10-28T12:21:37.582Z,24.56
2022-10-28T12:24:12.023Z,24.77
2022-10-28T12:26:43.528Z,25.04
2022-10-28T12:29:18.820Z,25.18
2022-10-28T12:31:53.962Z,24.85
2022-10-28T12:34:28.665Z,24.72
2022-10-28T12:37:17.822Z,24.91
2022-10-28T12:39:51.550Z,25.05
2022-10-28T12:42:28.942Z,24.91
2022-10-28T12:44:59.002Z,24.77
2022-10-28T12:47:43.305Z,24.88
2022-10-28T12:50:31.729Z,25.02
2022-10-28T12:53:14.282Z,24.93
2022-10-28T12:55:52.400Z,24.82
2022-10-28T12:58:33.841Z,24.68
2022-10-28T13:01:08.731Z,25.16
2022-10-28T13:03:35.907Z,25.55
2022-10-28T13:06:27.146Z,25.58
2022-10-28T13:09:18.245Z,25.69
2022-10-28T13:12:02.679Z,25.58
2022-10-28T13:14:50.664Z,25.58
2022-10-28T13:17:42.133Z,25.58
2022-10-28T13:20:19.366Z,25.43
2022-10-28T13:22:55.500Z,25.60
2022-10-28T13:25:33.674Z,25.46
2022-10-28T13:28:01.190Z,25.39
2022-10-28T13:30:28.941Z,25.57
2022-10-28T13:33:06.250Z,25.86
2022-10-28T13:35:33.408Z,25.72
2022-10-28T13:38:01.557Z,25.49
2022-10-28T13:40:30.705Z,25.73
2022-10-28T13:42:58.823Z,25.64
2022-10-28T13:45:51.542Z,25.90
2022-10-28T13:48:30.089Z,25.69
2022-10-28T13:51:11.749Z,25.49
2022-10-28T13:53:47.213Z,25.47
2022-10-28T13:56:49.690Z,25.27
2022-10-28T13:59:26.917Z,25.24
2022-10-28T14:02:32.304Z,25.09
2022-10-28T14:04:58.353Z,25.21
2022-10-28T14:07:31.671Z,24.78
2022-10-28T14:10:16.225Z,24.88
2022-10-28T14:13:22.441Z,24.87
2022-10-28T14:15:50.365Z,25.10
2022-10-28T14:18:41.386Z,24.77
2022-10-28T14:21:03.350Z,24.76
2022-10-28T14:23:29.707Z,24.92
2022-10-28T14:26:00.804Z,24.67
2022-10-28T14:28:27.134Z,24.44
2022-10-28T14:31:08.793Z,24.42
2022-10-28T14:33:37.040Z,24.33
2022-10-28T14:36:18.667Z,23.91
2022-10-28T14:39:03.178Z,23.79
2022-10-28T14:42:07.209Z,24.12
2022-10-28T14:45:01.624Z,23.86
2022-10-28T14:47:50.815Z,24.01
2022-10-28T14:50:44.972Z,23.88
2022-10-28T14:53:18.545Z,23.50
2022-10-28T14:55:50.023Z,23.47
2022-10-28T14:58:24.609Z,23.52
2022-10-28T15:01:17.345Z,23.29
2022-10-28T15:03:49.929Z,23.11
2022-10-28T15:06:30.177Z,23.11
2022-10-28T15:09:02.806Z,22.88
2022-10-28T15:11:29.224Z,22.95
2022-10-28T15:14:13.060Z,23.22
2022-10-28T15:16:46.861Z,23.41
2022-10-28T15:19:17.356Z,23.08
2022-10-28T15:21:43.814Z,22.95
2022-10-28T15:24:13.909Z,22.84
2022-10-28T15:26:40.443Z,22.82
2022-10-28T15:29:06.956Z,22.65
2022-10-28T15:31:33.614Z,22.59
2022-10-28T15:34:00.016Z,22.40
2022-10-28T15:36:26.979Z,22.39
2022-10-28T15:39:16.665Z,22.77
2022-10-28T15:41:48.003Z,22.38
2022-10-28T15:44:36.590Z,22.30
2022-10-28T15:47:27.805Z,22.12
2022-10-28T15:50:19.888Z,22.31
2022-10-28T15:52:51.947Z,21.96
2022-10-28T15:55:18.283Z,22.15
2022-10-28T15:57:59.701Z,22.13
2022-10-28T16:00:34.041Z,22.04
2022-10-28T16:03:05.759Z,21.86
2022-10-28T16:05:32.206Z,22.25
2022-10-28T16:08:00.998Z,21.85
2022-10-28T16:10:43.368Z,21.69
2022-10-28T16:13:19.026Z,22.38
2022-10-28T16:15:58.426Z,22.04
2022-10-28T16:18:26.776Z,22.14
2022-10-28T16:20:54.767Z,22.39
2022-10-28T16:23:24.434Z,22.01
2022-10-28T16:25:50.867Z,21.69
2022-10-28T16:28:23.505Z,22.02
2022-10-28T16:30:59.125Z,21.86
2022-10-28T16:33:31.926Z,21.68
2022-10-28T16:35:58.620Z,21.50
2022-10-28T16:38:25.160Z,21.85
2022-10-28T16:40:52.682Z,21.78
2022-10-28T16:43:22.602Z,21.76
2022-10-28T16:45:50.465Z,21.97
2022-10-28T16:48:18.436Z,22.04
2022-10-28T16:50:49.844Z,21.96
2022-10-28T16:53:16.452Z,22.13
2022-10-28T16:55:43.006Z,21.55
2022-10-28T16:58:09.682Z,21.50
2022-10-28T17:00:37.089Z,21.68
2022-10-28T17:03:03.977Z,21.50
2022-10-28T17:05:30.818Z,21.59
2022-10-28T17:07:57.473Z,21.55
2022-10-28T17:10:24.724Z,21.53
2022-10-28T17:12:51.301Z,21.33
2022-10-28T17:15:18.236Z,21.33
2022-10-28T17:17:48.187Z,21.08
2022-10-28T17:20:14.674Z,21.11
2022-10-28T17:22:41.052Z,20.98
2022-10-28T17:25:08.604Z,21.18
2022-10-28T17:27:37.250Z,21.02
2022-10-28T17:30:04.935Z,20.93
2022-10-28T17:32:31.540Z,21.29
2022-10-28T17:34:57.939Z,21.12
2022-10-28T17:37:24.294Z,21.24
2022-10-28T17:39:50.657Z,21.20
2022-10-28T17:42:17.142Z,20.86
2022-10-28T17:44:43.501Z,21.10
2022-10-28T17:47:09.846Z,20.79
2022-10-28T17:49:36.248Z,21.05
2022-10-28T17:52:02.636Z,20.79
2022-10-28T17:54:29.081Z,20.73
2022-10-28T17:56:55.379Z,20.72
2022-10-28T17:59:21.802Z,20.81
2022-10-28T18:01:48.574Z,20.88
2022-10-28T18:04:15.477Z,20.82
2022-10-28T18:06:41.834Z,21.29
2022-10-28T18:09:12.348Z,21.27
2022-10-28T18:11:38.899Z,21.07
2022-10-28T18:14:05.735Z,21.12
2022-10-28T18:16:32.394Z,21.54
2022-10-28T18:19:05.933Z,21.07
2022-10-28T18:21:32.861Z,20.95
2022-10-28T18:23:59.351Z,20.89
2022-10-28T18:26:25.783Z,21.06
2022-10-28T18:28:52.100Z,21.16
2022-10-28T18:31:20.363Z,21.25
2022-10-28T18:33:47.147Z,21.09
2022-10-28T18:36:23.185Z,20.88
2022-10-28T18:38:50.778Z,21.31
2022-10-28T18:41:25.928Z,21.35
2022-10-28T18:43:53.974Z,20.96
2022-10-28T18:46:20.412Z,21.18
2022-10-28T18:48:46.786Z,20.89
2022-10-28T18:51:13.728Z,20.93
2022-10-28T18:53:42.337Z,21.07
2022-10-28T18:56:15.915Z,20.72
2022-10-28T18:58:42.860Z,21.10
2022-10-28T19:01:12.018Z,20.75
2022-10-28T19:03:39.215Z,20.83
2022-10-28T19:06:09.042Z,20.71
2022-10-28T19:08:35.463Z,20.57
2022-10-28T19:11:03.020Z,20.45
2022-10-28T19:13:33.173Z,20.36
2022-10-28T19:15:59.905Z,20.13
2022-10-28T19:18:26.341Z,20.06
2022-10-28T19:20:52.751Z,19.83
2022-10-28T19:23:19.092Z,19.79
2022-10-28T19:25:56.517Z,19.87
2022-10-28T19:28:22.958Z,19.90
2022-10-28T19:30:49.506Z,19.78
2022-10-28T19:33:16.014Z,19.73
2022-10-28T19:35:42.468Z,19.89
2022-10-28T19:38:09.014Z,19.80
2022-10-28T19:40:35.566Z,19.79
2022-10-28T19:43:02.083Z,19.87
2022-10-28T19:45:28.463Z,19.73
2022-10-28T19:47:55.319Z,19.74
2022-10-28T19:50:22.115Z,19.68
2022-10-28T19:52:48.451Z,19.59
2022-10-28T19:55:15.264Z,19.57
2022-10-28T19:57:41.736Z,19.58
2022-10-28T20:00:09.468Z,19.72
2022-10-28T20:02:35.838Z,20.06
2022-10-28T20:05:02.355Z,20.05
2022-10-28T20:07:28.892Z,19.87
2022-10-28T20:09:55.326Z,19.75
2022-10-28T20:12:21.992Z,19.49
2022-10-28T20:14:48.656Z,19.45
2022-10-28T20:17:15.152Z,19.27
2022-10-28T20:19:41.494Z,19.18
2022-10-28T20:22:07.984Z,19.04
2022-10-28T20:24:34.352Z,18.99
2022-10-28T20:27:00.772Z,18.91
2022-10-28T20:29:27.105Z,18.88
2022-10-28T20:31:53.490Z,18.81
2022-10-28T20:34:19.773Z,18.74
2022-10-28T20:36:46.188Z,18.73
2022-10-28T20:39:15.104Z,18.60
2022-10-28T20:41:43.481Z,18.49
2022-10-28T20:44:10.208Z,18.46
2022-10-28T20:46:36.795Z,18.33
2022-10-28T20:49:03.997Z,18.27
2022-10-28T20:51:32.535Z,18.23
2022-10-28T20:53:59.951Z,18.12
2022-10-28T20:56:31.273Z,18.09
2022-10-28T20:58:58.525Z,18.04
2022-10-28T21:01:27.780Z,17.89
2022-10-28T21:04:05.212Z,17.81
2022-10-28T21:06:32.369Z,17.71
2022-10-28T21:08:58.988Z,17.65
2022-10-28T21:11:27.164Z,17.57
2022-10-28T21:13:56.351Z,17.61
2022-10-28T21:16:24.181Z,17.55
2022-10-28T21:18:50.788Z,17.59
2022-10-28T21:21:19.305Z,17.53
2022-10-28T21:23:45.647Z,17.38
2022-10-28T21:26:12.891Z,17.31
2022-10-28T21:28:39.990Z,17.21
2022-10-28T21:31:11.929Z,17.26
2022-10-28T21:33:44.062Z,17.21
2022-10-28T21:36:18.092Z,17.15
2022-10-28T21:38:44.858Z,17.17
2022-10-28T21:41:19.014Z,17.12
2022-10-28T21:43:47.948Z,17.03
2022-10-28T21:46:15.096Z,17.09
2022-10-28T21:48:41.456Z,17.01
2022-10-28T21:51:14.706Z,16.97
2022-10-28T21:53:42.094Z,16.85
2022-10-28T21:56:15.582Z,16.85
2022-10-28T21:58:44.095Z,16.82
2022-10-28T22:01:13.545Z,16.82
2022-10-28T22:03:40.879Z,16.82
2022-10-28T22:06:08.683Z,16.79
2022-10-28T22:08:35.278Z,16.81
2022-10-28T22:11:04.494Z,16.81
2022-10-28T22:13:30.856Z,16.76
2022-10-28T22:16:10.275Z,16.88
2022-10-28T22:18:37.836Z,16.83
2022-10-28T22:21:06.106Z,16.89
2022-10-28T22:23:32.885Z,16.98
2022-10-28T22:26:07.041Z,16.99
2022-10-28T22:28:34.213Z,17.12
2022-10-28T22:31:02.566Z,17.14
2022-10-28T22:33:28.915Z,17.15
2022-10-28T22:35:59.798Z,17.16
2022-10-28T22:38:27.021Z,17.15
2022-10-28T22:41:06.918Z,17.15
2022-10-28T22:43:33.930Z,17.12
2022-10-28T22:46:01.216Z,17.13
2022-10-28T22:48:28.073Z,17.09
2022-10-28T22:50:54.631Z,17.07
2022-10-28T22:53:21.230Z,17.06
2022-10-28T22:55:48.030Z,17.02
2022-10-28T22:58:16.401Z,16.97
2022-10-28T23:00:43.540Z,16.93
2022-10-28T23:03:09.953Z,16.84
2022-10-28T23:05:36.354Z,16.71
2022-10-28T23:08:02.749Z,16.73
2022-10-28T23:10:29.251Z,16.65
2022-10-28T23:13:01.352Z,16.58
2022-10-28T23:15:29.101Z,16.52
2022-10-28T23:17:56.276Z,16.43
2022-10-28T23:20:25.046Z,16.41
2022-10-28T23:22:55.441Z,16.34
2022-10-28T23:25:22.410Z,16.23
2022-10-28T23:27:48.904Z,16.22
2022-10-28T23:30:15.355Z,16.09
2022-10-28T23:32:42.119Z,16.14
2022-10-28T23:35:08.969Z,16.11
2022-10-28T23:37:35.722Z,15.96
2022-10-28T23:40:02.416Z,16.02
2022-10-28T23:42:29.119Z,15.93
2022-10-28T23:44:55.889Z,15.88
2022-10-28T23:47:22.595Z,15.87
2022-10-28T23:49:49.277Z,15.82
2022-10-28T23:52:15.951Z,15.79
2022-10-28T23:54:42.939Z,15.70
2022-10-28T23:57:12.692Z,15.63
2022-10-28T23:59:39.405Z,15.65
